SIA874 WSSS-VHHH
Flight info
| Callsign | SIA874 |
|---|---|
| Flight time | 3h 8m |
| Altitude | 37000 |
| Route | VMR6A VMR M771 DUDIS/K0919F370 M771 DOSUT/N0495F370 M771 DULOP Q1 CARSO V551 BETTY |
| Aircraft | A359/H-SDE2E3GHIJ3J4J5LM1ORWXY/LB1D1 |
Departure
| Time | 2026-05-05 06:44 |
|---|---|
| Airport | Singapore Changi Airport (WSSS) |
Arrival
| Time | 2026-05-05 09:53 |
|---|---|
| Airport | Hong Kong International Airport (VHHH) |
| Time | Latitude | Longitude | Altitude | Speed | Heading |
|---|---|---|---|---|---|
| 2026-05-05 06:17 | 1.35048 | 103.98818 | 58 ft | 0 kts | 290° |
| 2026-05-05 06:35 | 1.35045 | 103.98827 | 30 ft | 2 kts | 288° |
| 2026-05-05 06:35 | 1.35040 | 103.98843 | 30 ft | 2 kts | 288° |
| 2026-05-05 06:35 | 1.35035 | 103.98858 | 30 ft | 2 kts | 287° |
| 2026-05-05 06:35 | 1.35031 | 103.98874 | 28 ft | 2 kts | 283° |
| 2026-05-05 06:36 | 1.35028 | 103.98890 | 28 ft | 2 kts | 273° |
| 2026-05-05 06:36 | 1.35030 | 103.98906 | 28 ft | 2 kts | 226° |
| 2026-05-05 06:36 | 1.35038 | 103.98912 | 28 ft | 1 kts | 205° |
| 2026-05-05 06:36 | 1.35039 | 103.98912 | 28 ft | 0 kts | 204° |
| 2026-05-05 06:37 | 1.35037 | 103.98912 | 28 ft | 2 kts | 205° |
| 2026-05-05 06:37 | 1.35008 | 103.98899 | 28 ft | 6 kts | 204° |
| 2026-05-05 06:38 | 1.34956 | 103.98875 | 31 ft | 10 kts | 204° |
| 2026-05-05 06:38 | 1.34880 | 103.98842 | 31 ft | 14 kts | 204° |
| 2026-05-05 06:38 | 1.34784 | 103.98799 | 31 ft | 17 kts | 204° |
| 2026-05-05 06:38 | 1.34668 | 103.98750 | 31 ft | 19 kts | 199° |
| 2026-05-05 06:39 | 1.34565 | 103.98712 | 31 ft | 13 kts | 201° |
| 2026-05-05 06:39 | 1.34509 | 103.98719 | 31 ft | 6 kts | 137° |
| 2026-05-05 06:39 | 1.34480 | 103.98763 | 31 ft | 9 kts | 117° |
| 2026-05-05 06:39 | 1.34451 | 103.98829 | 32 ft | 12 kts | 113° |
| 2026-05-05 06:40 | 1.34410 | 103.98903 | 33 ft | 12 kts | 137° |
| 2026-05-05 06:40 | 1.34330 | 103.98912 | 33 ft | 13 kts | 197° |
| 2026-05-05 06:40 | 1.34236 | 103.98874 | 33 ft | 16 kts | 203° |
| 2026-05-05 06:40 | 1.34123 | 103.98826 | 33 ft | 19 kts | 203° |
| 2026-05-05 06:41 | 1.33990 | 103.98770 | 33 ft | 22 kts | 203° |
| 2026-05-05 06:41 | 1.33849 | 103.98711 | 33 ft | 18 kts | 202° |
| 2026-05-05 06:41 | 1.33728 | 103.98660 | 32 ft | 20 kts | 203° |
| 2026-05-05 06:41 | 1.33594 | 103.98604 | 32 ft | 22 kts | 202° |
| 2026-05-05 06:42 | 1.33447 | 103.98542 | 32 ft | 24 kts | 203° |
| 2026-05-05 06:42 | 1.33305 | 103.98481 | 32 ft | 23 kts | 203° |
| 2026-05-05 06:42 | 1.33154 | 103.98419 | 33 ft | 22 kts | 202° |
| 2026-05-05 06:42 | 1.33050 | 103.98438 | 34 ft | 15 kts | 130° |
| 2026-05-05 06:43 | 1.33024 | 103.98533 | 37 ft | 15 kts | 81° |
| 2026-05-05 06:43 | 1.33090 | 103.98592 | 36 ft | 13 kts | 10° |
| 2026-05-05 06:43 | 1.33300 | 103.98676 | 35 ft | 70 kts | 23° |
| 2026-05-05 06:43 | 1.33976 | 103.98960 | 37 ft | 141 kts | 23° |
| 2026-05-05 06:44 | 1.35053 | 103.99426 | 243 ft | 184 kts | 25° |
| 2026-05-05 06:44 | 1.36232 | 103.99947 | 1132 ft | 186 kts | 24° |
| 2026-05-05 06:44 | 1.37448 | 104.00479 | 1928 ft | 203 kts | 22° |
| 2026-05-05 06:44 | 1.38854 | 104.01057 | 2457 ft | 233 kts | 21° |
| 2026-05-05 06:45 | 1.40432 | 104.01706 | 3094 ft | 255 kts | 22° |
| 2026-05-05 06:45 | 1.42097 | 104.02400 | 3944 ft | 263 kts | 22° |
| 2026-05-05 06:45 | 1.43798 | 104.03115 | 4832 ft | 267 kts | 22° |
| 2026-05-05 06:45 | 1.45529 | 104.03846 | 5726 ft | 273 kts | 22° |
| 2026-05-05 06:46 | 1.47303 | 104.04568 | 6626 ft | 277 kts | 19° |
| 2026-05-05 06:46 | 1.49208 | 104.04896 | 7454 ft | 281 kts | 358° |
| 2026-05-05 06:46 | 1.51109 | 104.04442 | 8347 ft | 285 kts | 335° |
| 2026-05-05 06:46 | 1.52894 | 104.03532 | 9260 ft | 290 kts | 331° |
| 2026-05-05 06:47 | 1.54678 | 104.02545 | 10107 ft | 296 kts | 331° |
| 2026-05-05 06:47 | 1.56532 | 104.01522 | 10632 ft | 315 kts | 332° |
| 2026-05-05 06:47 | 1.58522 | 104.00436 | 10974 ft | 337 kts | 332° |
| 2026-05-05 06:47 | 1.60639 | 103.99287 | 11338 ft | 356 kts | 332° |
| 2026-05-05 06:48 | 1.62848 | 103.98092 | 11860 ft | 366 kts | 332° |
| 2026-05-05 06:48 | 1.65107 | 103.96871 | 12539 ft | 371 kts | 332° |
| 2026-05-05 06:48 | 1.67395 | 103.95636 | 13220 ft | 376 kts | 333° |
| 2026-05-05 06:48 | 1.69713 | 103.94385 | 13852 ft | 381 kts | 333° |
| 2026-05-05 06:49 | 1.72059 | 103.93119 | 14439 ft | 385 kts | 333° |
| 2026-05-05 06:49 | 1.74477 | 103.91937 | 15024 ft | 389 kts | 339° |
| 2026-05-05 06:49 | 1.77075 | 103.91187 | 15619 ft | 390 kts | 352° |
| 2026-05-05 06:49 | 1.79781 | 103.90892 | 16205 ft | 393 kts | 357° |
| 2026-05-05 06:50 | 1.82519 | 103.90720 | 16794 ft | 396 kts | 358° |
| 2026-05-05 06:50 | 1.85288 | 103.90558 | 17380 ft | 400 kts | 358° |
| 2026-05-05 06:50 | 1.88075 | 103.90390 | 17956 ft | 404 kts | 358° |
| 2026-05-05 06:50 | 1.90891 | 103.90217 | 18466 ft | 407 kts | 358° |
| 2026-05-05 06:51 | 1.93729 | 103.90039 | 18965 ft | 410 kts | 358° |
| 2026-05-05 06:51 | 1.96589 | 103.89858 | 19472 ft | 413 kts | 358° |
| 2026-05-05 06:51 | 1.99467 | 103.89676 | 19975 ft | 416 kts | 358° |
| 2026-05-05 06:51 | 2.02367 | 103.89492 | 20480 ft | 419 kts | 358° |
| 2026-05-05 06:52 | 2.05287 | 103.89306 | 20991 ft | 422 kts | 358° |
| 2026-05-05 06:52 | 2.08221 | 103.89119 | 21508 ft | 425 kts | 358° |
| 2026-05-05 06:52 | 2.11184 | 103.88931 | 22033 ft | 428 kts | 358° |
| 2026-05-05 06:52 | 2.14168 | 103.88740 | 22551 ft | 431 kts | 358° |
| 2026-05-05 06:53 | 2.17166 | 103.88549 | 23052 ft | 434 kts | 358° |
| 2026-05-05 06:53 | 2.20199 | 103.88356 | 23533 ft | 437 kts | 358° |
| 2026-05-05 06:53 | 2.23247 | 103.88162 | 23935 ft | 440 kts | 358° |
| 2026-05-05 06:53 | 2.26317 | 103.87967 | 24346 ft | 444 kts | 358° |
| 2026-05-05 06:54 | 2.29408 | 103.87770 | 24768 ft | 447 kts | 358° |
| 2026-05-05 06:54 | 2.32526 | 103.87574 | 25207 ft | 450 kts | 358° |
| 2026-05-05 06:54 | 2.35665 | 103.87562 | 25660 ft | 453 kts | 5° |
| 2026-05-05 06:54 | 2.38736 | 103.88048 | 26133 ft | 454 kts | 15° |
| 2026-05-05 06:55 | 2.41711 | 103.89104 | 26647 ft | 456 kts | 26° |
| 2026-05-05 06:55 | 2.44523 | 103.90604 | 27165 ft | 459 kts | 31° |
| 2026-05-05 06:55 | 2.47276 | 103.92250 | 27659 ft | 463 kts | 33° |
| 2026-05-05 06:55 | 2.50011 | 103.93970 | 28147 ft | 467 kts | 34° |
| 2026-05-05 06:56 | 2.52760 | 103.95727 | 28631 ft | 471 kts | 34° |
| 2026-05-05 06:56 | 2.55531 | 103.97497 | 29108 ft | 475 kts | 34° |
| 2026-05-05 06:56 | 2.58335 | 103.99275 | 29563 ft | 479 kts | 33° |
| 2026-05-05 06:56 | 2.61164 | 104.01055 | 29991 ft | 483 kts | 33° |
| 2026-05-05 06:57 | 2.64019 | 104.02840 | 30367 ft | 486 kts | 33° |
| 2026-05-05 06:57 | 2.66900 | 104.04635 | 30762 ft | 489 kts | 33° |
| 2026-05-05 06:57 | 2.69799 | 104.06439 | 31144 ft | 492 kts | 33° |
| 2026-05-05 06:57 | 2.72711 | 104.08249 | 31532 ft | 494 kts | 33° |
| 2026-05-05 06:58 | 2.75641 | 104.10071 | 31895 ft | 497 kts | 33° |
| 2026-05-05 06:58 | 2.78587 | 104.11903 | 32253 ft | 500 kts | 33° |
| 2026-05-05 06:58 | 2.81549 | 104.13747 | 32601 ft | 502 kts | 33° |
| 2026-05-05 06:58 | 2.84522 | 104.15597 | 32930 ft | 505 kts | 33° |
| 2026-05-05 06:59 | 2.87512 | 104.17459 | 33257 ft | 507 kts | 33° |
| 2026-05-05 06:59 | 2.90508 | 104.19325 | 33660 ft | 507 kts | 33° |
| 2026-05-05 06:59 | 2.93501 | 104.21188 | 34114 ft | 506 kts | 33° |
| 2026-05-05 06:59 | 2.96485 | 104.23047 | 34524 ft | 504 kts | 33° |
| 2026-05-05 07:00 | 2.99455 | 104.24897 | 34920 ft | 503 kts | 33° |
| 2026-05-05 07:00 | 3.02425 | 104.26747 | 35340 ft | 502 kts | 33° |
| 2026-05-05 07:00 | 3.05382 | 104.28589 | 35746 ft | 500 kts | 33° |
| 2026-05-05 07:00 | 3.08292 | 104.30412 | 36143 ft | 499 kts | 33° |
| 2026-05-05 07:01 | 3.11219 | 104.32267 | 36516 ft | 498 kts | 33° |
| 2026-05-05 07:01 | 3.14140 | 104.34126 | 36785 ft | 498 kts | 33° |
| 2026-05-05 07:01 | 3.17069 | 104.35974 | 36839 ft | 497 kts | 33° |
| 2026-05-05 07:02 | 3.22935 | 104.39615 | 36837 ft | 496 kts | 33° |
| 2026-05-05 07:02 | 3.28812 | 104.43248 | 36835 ft | 496 kts | 33° |
| 2026-05-05 07:03 | 3.34716 | 104.46907 | 36835 ft | 505 kts | 33° |
| 2026-05-05 07:03 | 3.40728 | 104.50641 | 36838 ft | 510 kts | 33° |
| 2026-05-05 07:04 | 3.46751 | 104.54387 | 36837 ft | 510 kts | 33° |
| 2026-05-05 07:04 | 3.52780 | 104.58134 | 36837 ft | 510 kts | 33° |
| 2026-05-05 07:05 | 3.57795 | 104.61247 | 36839 ft | 510 kts | 33° |
| 2026-05-05 07:05 | 3.63822 | 104.64991 | 36837 ft | 510 kts | 33° |
| 2026-05-05 07:06 | 3.69850 | 104.68738 | 36837 ft | 510 kts | 33° |
| 2026-05-05 07:06 | 3.75876 | 104.72486 | 36834 ft | 509 kts | 33° |
| 2026-05-05 07:07 | 3.81898 | 104.76231 | 36835 ft | 509 kts | 33° |
| 2026-05-05 07:07 | 3.87910 | 104.79978 | 36834 ft | 509 kts | 33° |
| 2026-05-05 07:08 | 3.93927 | 104.83719 | 36835 ft | 509 kts | 33° |
| 2026-05-05 07:08 | 3.99908 | 104.87440 | 36835 ft | 509 kts | 33° |
| 2026-05-05 07:09 | 4.05920 | 104.91181 | 36835 ft | 509 kts | 33° |
| 2026-05-05 07:09 | 4.11936 | 104.94928 | 36834 ft | 509 kts | 33° |
| 2026-05-05 07:10 | 4.17950 | 104.98674 | 36836 ft | 509 kts | 33° |
| 2026-05-05 07:10 | 4.23962 | 105.02422 | 36838 ft | 509 kts | 33° |
| 2026-05-05 07:11 | 4.29980 | 105.06160 | 36837 ft | 509 kts | 33° |
| 2026-05-05 07:11 | 4.36003 | 105.09896 | 36837 ft | 509 kts | 33° |
| 2026-05-05 07:12 | 4.42024 | 105.13636 | 36837 ft | 509 kts | 33° |
| 2026-05-05 07:12 | 4.48037 | 105.17374 | 36838 ft | 509 kts | 33° |
| 2026-05-05 07:13 | 4.54054 | 105.21115 | 36834 ft | 509 kts | 33° |
| 2026-05-05 07:13 | 4.60068 | 105.24856 | 36834 ft | 509 kts | 33° |
| 2026-05-05 07:14 | 4.66077 | 105.28594 | 36836 ft | 509 kts | 33° |
| 2026-05-05 07:14 | 4.72090 | 105.32334 | 36835 ft | 508 kts | 33° |
| 2026-05-05 07:15 | 4.78099 | 105.36073 | 36833 ft | 508 kts | 33° |
| 2026-05-05 07:15 | 4.84092 | 105.39828 | 36834 ft | 508 kts | 33° |
| 2026-05-05 07:16 | 4.90019 | 105.43690 | 36835 ft | 508 kts | 34° |
| 2026-05-05 07:16 | 4.95931 | 105.47574 | 36835 ft | 508 kts | 34° |
| 2026-05-05 07:17 | 5.01849 | 105.51444 | 36833 ft | 508 kts | 34° |
| 2026-05-05 07:17 | 5.07775 | 105.55305 | 36833 ft | 508 kts | 34° |
| 2026-05-05 07:18 | 5.13703 | 105.59165 | 36837 ft | 508 kts | 34° |
| 2026-05-05 07:18 | 5.19633 | 105.63027 | 36835 ft | 508 kts | 34° |
| 2026-05-05 07:19 | 5.25569 | 105.66894 | 36832 ft | 509 kts | 34° |
| 2026-05-05 07:19 | 5.31464 | 105.70736 | 36831 ft | 509 kts | 34° |
| 2026-05-05 07:20 | 5.37401 | 105.74606 | 36831 ft | 509 kts | 34° |
| 2026-05-05 07:20 | 5.43333 | 105.78474 | 36831 ft | 509 kts | 34° |
| 2026-05-05 07:21 | 5.49267 | 105.82344 | 36833 ft | 509 kts | 34° |
| 2026-05-05 07:21 | 5.55200 | 105.86215 | 36834 ft | 509 kts | 34° |
| 2026-05-05 07:22 | 5.61140 | 105.90091 | 36835 ft | 509 kts | 34° |
| 2026-05-05 07:22 | 5.67080 | 105.93967 | 36832 ft | 509 kts | 34° |
| 2026-05-05 07:23 | 5.73020 | 105.97845 | 36835 ft | 509 kts | 34° |
| 2026-05-05 07:23 | 5.78959 | 106.01723 | 36835 ft | 509 kts | 34° |
| 2026-05-05 07:24 | 5.84895 | 106.05601 | 36834 ft | 509 kts | 34° |
| 2026-05-05 07:24 | 5.90830 | 106.09478 | 36834 ft | 509 kts | 34° |
| 2026-05-05 07:25 | 5.96763 | 106.13355 | 36831 ft | 509 kts | 34° |
| 2026-05-05 07:25 | 6.02693 | 106.17231 | 36832 ft | 509 kts | 34° |
| 2026-05-05 07:26 | 6.08626 | 106.21111 | 36832 ft | 509 kts | 34° |
| 2026-05-05 07:26 | 6.14557 | 106.24990 | 36831 ft | 509 kts | 34° |
| 2026-05-05 07:27 | 6.20449 | 106.28844 | 36833 ft | 509 kts | 34° |
| 2026-05-05 07:27 | 6.26374 | 106.32721 | 36831 ft | 508 kts | 34° |
| 2026-05-05 07:28 | 6.32294 | 106.36596 | 36832 ft | 507 kts | 34° |
| 2026-05-05 07:28 | 6.38193 | 106.40458 | 36832 ft | 505 kts | 34° |
| 2026-05-05 07:29 | 6.44084 | 106.44316 | 36831 ft | 505 kts | 34° |
| 2026-05-05 07:29 | 6.49970 | 106.48172 | 36833 ft | 505 kts | 34° |
| 2026-05-05 07:30 | 6.55861 | 106.52033 | 36833 ft | 505 kts | 34° |
| 2026-05-05 07:30 | 6.64681 | 106.57814 | 36834 ft | 504 kts | 34° |
| 2026-05-05 07:31 | 6.70558 | 106.61668 | 36832 ft | 504 kts | 34° |
| 2026-05-05 07:31 | 6.76431 | 106.65520 | 36831 ft | 504 kts | 34° |
| 2026-05-05 07:32 | 6.82311 | 106.69379 | 36832 ft | 504 kts | 34° |
| 2026-05-05 07:32 | 6.88182 | 106.73233 | 36832 ft | 503 kts | 34° |
| 2026-05-05 07:33 | 6.94044 | 106.77081 | 36831 ft | 503 kts | 34° |
| 2026-05-05 07:33 | 6.99906 | 106.80931 | 36845 ft | 504 kts | 34° |
| 2026-05-05 07:34 | 7.05786 | 106.84800 | 37015 ft | 505 kts | 34° |
| 2026-05-05 07:34 | 7.11664 | 106.88666 | 37195 ft | 504 kts | 34° |
| 2026-05-05 07:35 | 7.17494 | 106.92502 | 37389 ft | 503 kts | 34° |
| 2026-05-05 07:35 | 7.23347 | 106.96355 | 37567 ft | 503 kts | 34° |
| 2026-05-05 07:36 | 7.26279 | 106.98286 | 37672 ft | 502 kts | 34° |
| 2026-05-05 07:36 | 7.29201 | 107.00211 | 37763 ft | 502 kts | 33° |
| 2026-05-05 07:36 | 7.32118 | 107.02132 | 37873 ft | 501 kts | 33° |
| 2026-05-05 07:36 | 7.35032 | 107.04052 | 37970 ft | 500 kts | 33° |
| 2026-05-05 07:37 | 7.40854 | 107.07888 | 38151 ft | 500 kts | 33° |
| 2026-05-05 07:37 | 7.46665 | 107.11719 | 38317 ft | 499 kts | 33° |
| 2026-05-05 07:38 | 7.49567 | 107.13632 | 38419 ft | 498 kts | 33° |
| 2026-05-05 07:38 | 7.52468 | 107.15545 | 38494 ft | 498 kts | 33° |
| 2026-05-05 07:38 | 7.58264 | 107.19368 | 38625 ft | 498 kts | 33° |
| 2026-05-05 07:39 | 7.64056 | 107.23190 | 38737 ft | 498 kts | 33° |
| 2026-05-05 07:39 | 7.69847 | 107.27013 | 38821 ft | 496 kts | 33° |
| 2026-05-05 07:40 | 7.75606 | 107.30815 | 38828 ft | 494 kts | 33° |
| 2026-05-05 07:40 | 7.81352 | 107.34610 | 38828 ft | 494 kts | 33° |
| 2026-05-05 07:41 | 7.87101 | 107.38409 | 38831 ft | 494 kts | 33° |
| 2026-05-05 07:41 | 7.92812 | 107.42183 | 38832 ft | 494 kts | 33° |
| 2026-05-05 07:42 | 7.98561 | 107.45984 | 38831 ft | 494 kts | 33° |
| 2026-05-05 07:42 | 8.04314 | 107.49789 | 38832 ft | 494 kts | 33° |
| 2026-05-05 07:43 | 8.10060 | 107.53591 | 38831 ft | 494 kts | 33° |
| 2026-05-05 07:43 | 8.15809 | 107.57395 | 38830 ft | 494 kts | 33° |
| 2026-05-05 07:44 | 8.21558 | 107.61202 | 38831 ft | 494 kts | 33° |
| 2026-05-05 07:44 | 8.27306 | 107.65009 | 38832 ft | 494 kts | 33° |
| 2026-05-05 07:45 | 8.33054 | 107.68817 | 38832 ft | 494 kts | 33° |
| 2026-05-05 07:45 | 8.38797 | 107.72623 | 38832 ft | 494 kts | 33° |
| 2026-05-05 07:46 | 8.44540 | 107.76431 | 38834 ft | 494 kts | 33° |
| 2026-05-05 07:46 | 8.50279 | 107.80237 | 38834 ft | 493 kts | 33° |
| 2026-05-05 07:47 | 8.56013 | 107.84042 | 38830 ft | 493 kts | 33° |
| 2026-05-05 07:47 | 8.61752 | 107.87850 | 38831 ft | 493 kts | 33° |
| 2026-05-05 07:48 | 8.67488 | 107.91659 | 38832 ft | 493 kts | 33° |
| 2026-05-05 07:48 | 8.73218 | 107.95465 | 38831 ft | 492 kts | 33° |
| 2026-05-05 07:49 | 8.78946 | 107.99271 | 38831 ft | 492 kts | 33° |
| 2026-05-05 07:49 | 8.84629 | 108.03049 | 38833 ft | 492 kts | 33° |
| 2026-05-05 07:50 | 8.90390 | 108.06879 | 38833 ft | 492 kts | 33° |
| 2026-05-05 07:50 | 8.96113 | 108.10686 | 38837 ft | 492 kts | 33° |
| 2026-05-05 07:51 | 9.01797 | 108.14470 | 38837 ft | 492 kts | 33° |
| 2026-05-05 07:51 | 9.07526 | 108.18283 | 38839 ft | 493 kts | 33° |
| 2026-05-05 07:52 | 9.13257 | 108.22100 | 38838 ft | 493 kts | 33° |
| 2026-05-05 07:52 | 9.18992 | 108.25921 | 38838 ft | 494 kts | 33° |
| 2026-05-05 07:53 | 9.24727 | 108.29744 | 38840 ft | 494 kts | 33° |
| 2026-05-05 07:53 | 9.30462 | 108.33568 | 38840 ft | 494 kts | 33° |
| 2026-05-05 07:54 | 9.36194 | 108.37391 | 38838 ft | 494 kts | 33° |
| 2026-05-05 07:54 | 9.41939 | 108.41225 | 38840 ft | 495 kts | 33° |
| 2026-05-05 07:55 | 9.46716 | 108.44414 | 38838 ft | 494 kts | 33° |
| 2026-05-05 07:55 | 9.53416 | 108.48888 | 38839 ft | 493 kts | 33° |
| 2026-05-05 07:56 | 9.58172 | 108.52061 | 38839 ft | 493 kts | 33° |
| 2026-05-05 07:56 | 9.63896 | 108.55882 | 38844 ft | 492 kts | 33° |
| 2026-05-05 07:57 | 9.69620 | 108.59706 | 38845 ft | 492 kts | 33° |
| 2026-05-05 07:57 | 9.75340 | 108.63530 | 38844 ft | 492 kts | 33° |
| 2026-05-05 07:58 | 9.81061 | 108.67355 | 38844 ft | 492 kts | 33° |
| 2026-05-05 07:58 | 9.86779 | 108.71180 | 38845 ft | 492 kts | 33° |
| 2026-05-05 07:59 | 9.92498 | 108.75008 | 38847 ft | 492 kts | 33° |
| 2026-05-05 07:59 | 9.98179 | 108.78812 | 38845 ft | 493 kts | 33° |
| 2026-05-05 08:00 | 10.03900 | 108.82649 | 38845 ft | 494 kts | 33° |
| 2026-05-05 08:00 | 10.09668 | 108.86506 | 38847 ft | 498 kts | 33° |
| 2026-05-05 08:01 | 10.15466 | 108.90383 | 38842 ft | 499 kts | 33° |
| 2026-05-05 08:01 | 10.21268 | 108.94268 | 38843 ft | 500 kts | 33° |
| 2026-05-05 08:02 | 10.27067 | 108.98154 | 38843 ft | 500 kts | 33° |
| 2026-05-05 08:02 | 10.32870 | 109.02045 | 38841 ft | 500 kts | 33° |
| 2026-05-05 08:03 | 10.38673 | 109.05937 | 38840 ft | 502 kts | 34° |
| 2026-05-05 08:03 | 10.44547 | 109.09879 | 38843 ft | 506 kts | 34° |
| 2026-05-05 08:04 | 10.50396 | 109.13806 | 38844 ft | 506 kts | 33° |
| 2026-05-05 08:04 | 10.56273 | 109.17753 | 38843 ft | 506 kts | 33° |
| 2026-05-05 08:05 | 10.62117 | 109.21681 | 38842 ft | 505 kts | 33° |
| 2026-05-05 08:05 | 10.67997 | 109.25634 | 38845 ft | 505 kts | 33° |
| 2026-05-05 08:06 | 10.73868 | 109.29583 | 38850 ft | 506 kts | 33° |
| 2026-05-05 08:06 | 10.79706 | 109.33512 | 38848 ft | 506 kts | 33° |
| 2026-05-05 08:07 | 10.85579 | 109.37466 | 38849 ft | 506 kts | 33° |
| 2026-05-05 08:07 | 10.91455 | 109.41424 | 38849 ft | 506 kts | 33° |
| 2026-05-05 08:08 | 10.97339 | 109.45390 | 38847 ft | 506 kts | 33° |
| 2026-05-05 08:08 | 11.03180 | 109.49327 | 38848 ft | 506 kts | 33° |
| 2026-05-05 08:09 | 11.09068 | 109.53300 | 38848 ft | 507 kts | 33° |
| 2026-05-05 08:09 | 11.14962 | 109.57254 | 38850 ft | 507 kts | 33° |
| 2026-05-05 08:10 | 11.20856 | 109.61124 | 38852 ft | 507 kts | 32° |
| 2026-05-05 08:10 | 11.26802 | 109.65023 | 38858 ft | 507 kts | 32° |
| 2026-05-05 08:11 | 11.32698 | 109.68905 | 38854 ft | 507 kts | 33° |
| 2026-05-05 08:11 | 11.38640 | 109.72826 | 38858 ft | 507 kts | 32° |
| 2026-05-05 08:12 | 11.44539 | 109.76723 | 38860 ft | 507 kts | 32° |
| 2026-05-05 08:12 | 11.50436 | 109.80620 | 38856 ft | 507 kts | 33° |
| 2026-05-05 08:13 | 11.56382 | 109.84550 | 38855 ft | 508 kts | 33° |
| 2026-05-05 08:13 | 11.62293 | 109.88459 | 38860 ft | 508 kts | 33° |
| 2026-05-05 08:14 | 11.68226 | 109.92385 | 38861 ft | 508 kts | 33° |
| 2026-05-05 08:14 | 11.74123 | 109.96290 | 38854 ft | 507 kts | 32° |
| 2026-05-05 08:15 | 11.80016 | 110.00193 | 38855 ft | 507 kts | 32° |
| 2026-05-05 08:15 | 11.85937 | 110.04118 | 38857 ft | 506 kts | 32° |
| 2026-05-05 08:16 | 11.91866 | 110.08049 | 38858 ft | 507 kts | 32° |
| 2026-05-05 08:16 | 11.97754 | 110.11955 | 38859 ft | 507 kts | 32° |
| 2026-05-05 08:17 | 12.03679 | 110.15888 | 38861 ft | 509 kts | 32° |
| 2026-05-05 08:17 | 12.09649 | 110.19853 | 38861 ft | 513 kts | 32° |
| 2026-05-05 08:18 | 12.15601 | 110.23808 | 38861 ft | 514 kts | 32° |
| 2026-05-05 08:18 | 12.21598 | 110.27795 | 38862 ft | 514 kts | 32° |
| 2026-05-05 08:19 | 12.27595 | 110.31786 | 38862 ft | 514 kts | 32° |
| 2026-05-05 08:19 | 12.33592 | 110.35777 | 38860 ft | 515 kts | 32° |
| 2026-05-05 08:20 | 12.39555 | 110.39777 | 38860 ft | 511 kts | 32° |
| 2026-05-05 08:20 | 12.45422 | 110.43874 | 38861 ft | 510 kts | 33° |
| 2026-05-05 08:21 | 12.51261 | 110.47984 | 38862 ft | 509 kts | 33° |
| 2026-05-05 08:21 | 12.57105 | 110.52080 | 38862 ft | 509 kts | 33° |
| 2026-05-05 08:22 | 12.62955 | 110.56167 | 38864 ft | 509 kts | 33° |
| 2026-05-05 08:22 | 12.68806 | 110.60254 | 38866 ft | 510 kts | 33° |
| 2026-05-05 08:23 | 12.74671 | 110.64353 | 38865 ft | 511 kts | 33° |
| 2026-05-05 08:23 | 12.80537 | 110.68465 | 38866 ft | 511 kts | 33° |
| 2026-05-05 08:24 | 12.86410 | 110.72569 | 38867 ft | 511 kts | 33° |
| 2026-05-05 08:24 | 12.92283 | 110.76676 | 38865 ft | 511 kts | 33° |
| 2026-05-05 08:25 | 12.98150 | 110.80784 | 38864 ft | 511 kts | 33° |
| 2026-05-05 08:25 | 13.04030 | 110.84906 | 38865 ft | 513 kts | 32° |
| 2026-05-05 08:26 | 13.09931 | 110.89045 | 38868 ft | 514 kts | 32° |
| 2026-05-05 08:26 | 13.15829 | 110.93184 | 38867 ft | 514 kts | 32° |
| 2026-05-05 08:27 | 13.21726 | 110.97325 | 38868 ft | 514 kts | 33° |
| 2026-05-05 08:27 | 13.27627 | 111.01470 | 38867 ft | 514 kts | 33° |
| 2026-05-05 08:28 | 13.33523 | 111.05616 | 38867 ft | 514 kts | 33° |
| 2026-05-05 08:28 | 13.39416 | 111.09761 | 38868 ft | 513 kts | 33° |
| 2026-05-05 08:29 | 13.45273 | 111.13883 | 38868 ft | 513 kts | 33° |
| 2026-05-05 08:30 | 13.54126 | 111.20119 | 38867 ft | 515 kts | 32° |
| 2026-05-05 08:30 | 13.60078 | 111.24315 | 38867 ft | 516 kts | 32° |
| 2026-05-05 08:31 | 13.65955 | 111.28461 | 38867 ft | 516 kts | 32° |
| 2026-05-05 08:31 | 13.71872 | 111.32637 | 38868 ft | 515 kts | 32° |
| 2026-05-05 08:32 | 13.77782 | 111.36811 | 38866 ft | 515 kts | 32° |
| 2026-05-05 08:32 | 13.83693 | 111.40988 | 38868 ft | 515 kts | 32° |
| 2026-05-05 08:33 | 13.89606 | 111.45169 | 38867 ft | 515 kts | 32° |
| 2026-05-05 08:33 | 13.95512 | 111.49349 | 38870 ft | 515 kts | 31° |
| 2026-05-05 08:34 | 14.01396 | 111.53512 | 38867 ft | 512 kts | 31° |
| 2026-05-05 08:34 | 14.07275 | 111.57645 | 38865 ft | 511 kts | 31° |
| 2026-05-05 08:35 | 14.13148 | 111.61772 | 38867 ft | 511 kts | 31° |
| 2026-05-05 08:35 | 14.19019 | 111.65905 | 38870 ft | 511 kts | 31° |
| 2026-05-05 08:36 | 14.24888 | 111.70042 | 38873 ft | 511 kts | 31° |
| 2026-05-05 08:36 | 14.30756 | 111.74182 | 38869 ft | 511 kts | 31° |
| 2026-05-05 08:37 | 14.36621 | 111.78322 | 38875 ft | 511 kts | 31° |
| 2026-05-05 08:37 | 14.42485 | 111.82464 | 38869 ft | 510 kts | 31° |
| 2026-05-05 08:38 | 14.48334 | 111.86599 | 38877 ft | 510 kts | 31° |
| 2026-05-05 08:38 | 14.54185 | 111.90737 | 38869 ft | 509 kts | 31° |
| 2026-05-05 08:39 | 14.60023 | 111.94873 | 38876 ft | 508 kts | 31° |
| 2026-05-05 08:39 | 14.65832 | 111.98981 | 38867 ft | 507 kts | 31° |
| 2026-05-05 08:40 | 14.71664 | 112.03106 | 38874 ft | 507 kts | 31° |
| 2026-05-05 08:40 | 14.77474 | 112.07197 | 38870 ft | 507 kts | 31° |
| 2026-05-05 08:41 | 14.83289 | 112.11268 | 38874 ft | 507 kts | 31° |
| 2026-05-05 08:41 | 14.89138 | 112.15372 | 38873 ft | 507 kts | 31° |
| 2026-05-05 08:42 | 14.94984 | 112.19483 | 38871 ft | 507 kts | 31° |
| 2026-05-05 08:42 | 15.00784 | 112.23568 | 38872 ft | 507 kts | 31° |
| 2026-05-05 08:43 | 15.06628 | 112.27685 | 38873 ft | 507 kts | 31° |
| 2026-05-05 08:43 | 15.12438 | 112.31782 | 38872 ft | 507 kts | 31° |
| 2026-05-05 08:44 | 15.18268 | 112.35896 | 38882 ft | 507 kts | 31° |
| 2026-05-05 08:44 | 15.24081 | 112.39999 | 38869 ft | 507 kts | 31° |
| 2026-05-05 08:45 | 15.29938 | 112.44137 | 38874 ft | 508 kts | 31° |
| 2026-05-05 08:45 | 15.35750 | 112.48246 | 38873 ft | 508 kts | 31° |
| 2026-05-05 08:46 | 15.41582 | 112.52371 | 38872 ft | 509 kts | 31° |
| 2026-05-05 08:46 | 15.46482 | 112.55840 | 38870 ft | 509 kts | 31° |
| 2026-05-05 08:47 | 15.52293 | 112.59957 | 38880 ft | 509 kts | 31° |
| 2026-05-05 08:47 | 15.58158 | 112.64114 | 38873 ft | 509 kts | 31° |
| 2026-05-05 08:48 | 15.64020 | 112.68272 | 38868 ft | 509 kts | 31° |
| 2026-05-05 08:48 | 15.69853 | 112.72413 | 38862 ft | 509 kts | 31° |
| 2026-05-05 08:49 | 15.75685 | 112.76556 | 38866 ft | 509 kts | 31° |
| 2026-05-05 08:49 | 15.81544 | 112.80721 | 38879 ft | 510 kts | 31° |
| 2026-05-05 08:50 | 15.87399 | 112.84886 | 38874 ft | 511 kts | 31° |
| 2026-05-05 08:50 | 15.93262 | 112.89060 | 38876 ft | 511 kts | 31° |
| 2026-05-05 08:51 | 15.99126 | 112.93237 | 38876 ft | 511 kts | 31° |
| 2026-05-05 08:51 | 16.04987 | 112.97416 | 38873 ft | 511 kts | 31° |
| 2026-05-05 08:52 | 16.10846 | 113.01595 | 38868 ft | 511 kts | 31° |
| 2026-05-05 08:52 | 16.16721 | 113.05789 | 38872 ft | 512 kts | 31° |
| 2026-05-05 08:53 | 16.22597 | 113.09988 | 38881 ft | 513 kts | 31° |
| 2026-05-05 08:53 | 16.28476 | 113.14192 | 38873 ft | 512 kts | 31° |
| 2026-05-05 08:54 | 16.34351 | 113.18396 | 38871 ft | 512 kts | 31° |
| 2026-05-05 08:54 | 16.40224 | 113.22601 | 38877 ft | 513 kts | 31° |
| 2026-05-05 08:55 | 16.46134 | 113.26834 | 38870 ft | 517 kts | 31° |
| 2026-05-05 08:55 | 16.52071 | 113.31092 | 38873 ft | 518 kts | 31° |
| 2026-05-05 08:56 | 16.57975 | 113.35330 | 38873 ft | 519 kts | 31° |
| 2026-05-05 08:56 | 16.63922 | 113.39601 | 38875 ft | 519 kts | 31° |
| 2026-05-05 08:57 | 16.69860 | 113.43870 | 38881 ft | 519 kts | 31° |
| 2026-05-05 08:57 | 16.75822 | 113.48158 | 38876 ft | 521 kts | 31° |
| 2026-05-05 08:58 | 16.81796 | 113.52458 | 38875 ft | 522 kts | 32° |
| 2026-05-05 08:58 | 16.87767 | 113.56760 | 38875 ft | 522 kts | 32° |
| 2026-05-05 08:59 | 16.93744 | 113.61069 | 38875 ft | 522 kts | 32° |
| 2026-05-05 08:59 | 16.99718 | 113.65381 | 38880 ft | 522 kts | 31° |
| 2026-05-05 09:00 | 17.05680 | 113.69684 | 38876 ft | 521 kts | 31° |
| 2026-05-05 09:00 | 17.11662 | 113.73946 | 38878 ft | 520 kts | 31° |
| 2026-05-05 09:01 | 17.17660 | 113.78203 | 38878 ft | 521 kts | 31° |
| 2026-05-05 09:01 | 17.23661 | 113.82475 | 38875 ft | 522 kts | 31° |
| 2026-05-05 09:02 | 17.29666 | 113.86761 | 38875 ft | 523 kts | 31° |
| 2026-05-05 09:02 | 17.35632 | 113.91024 | 38878 ft | 523 kts | 31° |
| 2026-05-05 09:03 | 17.41637 | 113.95318 | 38878 ft | 523 kts | 31° |
| 2026-05-05 09:03 | 17.47635 | 113.99610 | 38878 ft | 522 kts | 31° |
| 2026-05-05 09:04 | 17.53640 | 114.03911 | 38876 ft | 522 kts | 31° |
| 2026-05-05 09:04 | 17.59645 | 114.08215 | 38879 ft | 522 kts | 31° |
| 2026-05-05 09:05 | 17.65658 | 114.12528 | 38883 ft | 523 kts | 31° |
| 2026-05-05 09:05 | 17.71631 | 114.16815 | 38884 ft | 523 kts | 31° |
| 2026-05-05 09:06 | 17.77662 | 114.21149 | 38882 ft | 523 kts | 31° |
| 2026-05-05 09:06 | 17.83636 | 114.25445 | 38884 ft | 523 kts | 31° |
| 2026-05-05 09:07 | 17.89619 | 114.29752 | 38881 ft | 520 kts | 31° |
| 2026-05-05 09:07 | 17.95579 | 114.34046 | 38884 ft | 518 kts | 31° |
| 2026-05-05 09:08 | 18.01532 | 114.38337 | 38887 ft | 518 kts | 31° |
| 2026-05-05 09:08 | 18.07456 | 114.42610 | 38887 ft | 520 kts | 31° |
| 2026-05-05 09:09 | 18.13442 | 114.46931 | 38887 ft | 521 kts | 31° |
| 2026-05-05 09:09 | 18.19376 | 114.51219 | 38885 ft | 518 kts | 31° |
| 2026-05-05 09:10 | 18.25763 | 114.54568 | 38889 ft | 508 kts | 14° |
| 2026-05-05 09:10 | 18.32607 | 114.56362 | 38889 ft | 505 kts | 8° |
| 2026-05-05 09:11 | 18.39459 | 114.57847 | 38891 ft | 505 kts | 8° |
| 2026-05-05 09:11 | 18.46361 | 114.59305 | 38897 ft | 504 kts | 8° |
| 2026-05-05 09:12 | 18.53247 | 114.60789 | 38895 ft | 504 kts | 8° |
| 2026-05-05 09:12 | 18.60076 | 114.62281 | 38897 ft | 504 kts | 8° |
| 2026-05-05 09:13 | 18.66963 | 114.63791 | 38899 ft | 504 kts | 8° |
| 2026-05-05 09:13 | 18.73794 | 114.65290 | 38897 ft | 504 kts | 8° |
| 2026-05-05 09:14 | 18.80675 | 114.66800 | 38899 ft | 503 kts | 8° |
| 2026-05-05 09:14 | 18.87528 | 114.68305 | 38900 ft | 503 kts | 8° |
| 2026-05-05 09:15 | 18.94355 | 114.69805 | 38901 ft | 503 kts | 8° |
| 2026-05-05 09:15 | 19.01224 | 114.70761 | 38903 ft | 496 kts | 356° |
| 2026-05-05 09:16 | 19.08115 | 114.70422 | 38904 ft | 494 kts | 352° |
| 2026-05-05 09:16 | 19.14937 | 114.69844 | 38908 ft | 493 kts | 352° |
| 2026-05-05 09:17 | 19.21804 | 114.69228 | 38905 ft | 493 kts | 352° |
| 2026-05-05 09:17 | 19.28602 | 114.68636 | 38905 ft | 493 kts | 352° |
| 2026-05-05 09:18 | 19.35437 | 114.68055 | 38907 ft | 493 kts | 352° |
| 2026-05-05 09:18 | 19.42266 | 114.67479 | 38911 ft | 492 kts | 352° |
| 2026-05-05 09:19 | 19.49081 | 114.66903 | 38911 ft | 491 kts | 352° |
| 2026-05-05 09:19 | 19.55892 | 114.66326 | 38911 ft | 491 kts | 352° |
| 2026-05-05 09:20 | 19.62705 | 114.65747 | 38914 ft | 491 kts | 352° |
| 2026-05-05 09:20 | 19.69511 | 114.65173 | 38917 ft | 491 kts | 351° |
| 2026-05-05 09:21 | 19.76316 | 114.64599 | 38915 ft | 490 kts | 351° |
| 2026-05-05 09:21 | 19.83107 | 114.64016 | 38917 ft | 490 kts | 351° |
| 2026-05-05 09:22 | 19.89900 | 114.63434 | 38920 ft | 490 kts | 351° |
| 2026-05-05 09:22 | 19.96695 | 114.62854 | 38917 ft | 490 kts | 351° |
| 2026-05-05 09:23 | 20.03488 | 114.62275 | 38925 ft | 490 kts | 351° |
| 2026-05-05 09:23 | 20.10279 | 114.61695 | 38926 ft | 490 kts | 351° |
| 2026-05-05 09:24 | 20.17075 | 114.61115 | 38922 ft | 490 kts | 351° |
| 2026-05-05 09:24 | 20.23818 | 114.60538 | 38926 ft | 490 kts | 351° |
| 2026-05-05 09:25 | 20.30614 | 114.59956 | 38926 ft | 490 kts | 351° |
| 2026-05-05 09:25 | 20.37404 | 114.59374 | 38929 ft | 490 kts | 351° |
| 2026-05-05 09:26 | 20.44194 | 114.58792 | 38927 ft | 489 kts | 351° |
| 2026-05-05 09:26 | 20.50988 | 114.58209 | 38933 ft | 489 kts | 351° |
| 2026-05-05 09:27 | 20.57778 | 114.57626 | 38933 ft | 489 kts | 351° |
| 2026-05-05 09:27 | 20.64575 | 114.57047 | 38937 ft | 490 kts | 351° |
| 2026-05-05 09:28 | 20.71363 | 114.56457 | 38927 ft | 487 kts | 351° |
| 2026-05-05 09:28 | 20.74688 | 114.56172 | 38424 ft | 471 kts | 351° |
| 2026-05-05 09:28 | 20.77940 | 114.55894 | 37151 ft | 473 kts | 351° |
| 2026-05-05 09:28 | 20.81276 | 114.55597 | 35720 ft | 488 kts | 352° |
| 2026-05-05 09:29 | 20.84706 | 114.55402 | 34423 ft | 500 kts | 357° |
| 2026-05-05 09:29 | 20.88216 | 114.55431 | 33038 ft | 509 kts | 357° |
| 2026-05-05 09:29 | 20.91778 | 114.55470 | 31656 ft | 514 kts | 357° |
| 2026-05-05 09:29 | 20.95374 | 114.55504 | 30276 ft | 520 kts | 356° |
| 2026-05-05 09:30 | 20.99005 | 114.55535 | 28840 ft | 523 kts | 356° |
| 2026-05-05 09:30 | 21.02598 | 114.55566 | 27766 ft | 505 kts | 357° |
| 2026-05-05 09:30 | 21.06095 | 114.55600 | 27096 ft | 503 kts | 356° |
| 2026-05-05 09:30 | 21.09579 | 114.55632 | 26346 ft | 499 kts | 356° |
| 2026-05-05 09:31 | 21.13035 | 114.55663 | 25529 ft | 494 kts | 356° |
| 2026-05-05 09:31 | 21.16463 | 114.55694 | 24733 ft | 490 kts | 357° |
| 2026-05-05 09:31 | 21.19851 | 114.55724 | 23964 ft | 485 kts | 357° |
| 2026-05-05 09:31 | 21.23212 | 114.55754 | 23136 ft | 481 kts | 356° |
| 2026-05-05 09:32 | 21.26544 | 114.55783 | 22223 ft | 476 kts | 356° |
| 2026-05-05 09:32 | 21.29833 | 114.55813 | 21408 ft | 470 kts | 357° |
| 2026-05-05 09:32 | 21.33009 | 114.55842 | 20650 ft | 464 kts | 357° |
| 2026-05-05 09:32 | 21.36157 | 114.55871 | 19882 ft | 458 kts | 357° |
| 2026-05-05 09:33 | 21.39313 | 114.55900 | 19096 ft | 453 kts | 357° |
| 2026-05-05 09:33 | 21.42443 | 114.55928 | 18305 ft | 449 kts | 357° |
| 2026-05-05 09:33 | 21.45578 | 114.55957 | 17413 ft | 444 kts | 358° |
| 2026-05-05 09:33 | 21.48634 | 114.55802 | 16571 ft | 435 kts | 348° |
| 2026-05-05 09:34 | 21.51533 | 114.55021 | 15768 ft | 425 kts | 340° |
| 2026-05-05 09:34 | 21.54328 | 114.54058 | 14978 ft | 419 kts | 339° |
| 2026-05-05 09:34 | 21.57081 | 114.53088 | 14210 ft | 414 kts | 339° |
| 2026-05-05 09:34 | 21.59786 | 114.52076 | 13383 ft | 408 kts | 335° |
| 2026-05-05 09:35 | 21.62170 | 114.50529 | 12672 ft | 396 kts | 317° |
| 2026-05-05 09:35 | 21.65971 | 114.46326 | 12259 ft | 387 kts | 311° |
| 2026-05-05 09:35 | 21.67179 | 114.44927 | 12091 ft | 385 kts | 311° |
| 2026-05-05 09:36 | 21.69612 | 114.42108 | 11722 ft | 384 kts | 311° |
| 2026-05-05 09:36 | 21.70839 | 114.40688 | 11547 ft | 383 kts | 311° |
| 2026-05-05 09:36 | 21.72614 | 114.38632 | 11316 ft | 375 kts | 311° |
| 2026-05-05 09:36 | 21.74347 | 114.36632 | 11104 ft | 356 kts | 311° |
| 2026-05-05 09:37 | 21.75994 | 114.34736 | 10865 ft | 339 kts | 311° |
| 2026-05-05 09:37 | 21.77583 | 114.32905 | 10661 ft | 322 kts | 311° |
| 2026-05-05 09:37 | 21.79060 | 114.31202 | 10430 ft | 309 kts | 311° |
| 2026-05-05 09:37 | 21.80495 | 114.29544 | 10199 ft | 296 kts | 310° |
| 2026-05-05 09:38 | 21.81871 | 114.27949 | 9967 ft | 286 kts | 310° |
| 2026-05-05 09:38 | 21.83216 | 114.26383 | 9717 ft | 285 kts | 311° |
| 2026-05-05 09:38 | 21.84568 | 114.24811 | 9510 ft | 286 kts | 310° |
| 2026-05-05 09:38 | 21.85919 | 114.23243 | 9305 ft | 285 kts | 310° |
| 2026-05-05 09:39 | 21.87264 | 114.21681 | 9102 ft | 285 kts | 311° |
| 2026-05-05 09:39 | 21.88607 | 114.20115 | 8891 ft | 284 kts | 310° |
| 2026-05-05 09:39 | 21.89772 | 114.18410 | 8686 ft | 282 kts | 300° |
| 2026-05-05 09:39 | 21.90743 | 114.16590 | 8489 ft | 279 kts | 298° |
| 2026-05-05 09:40 | 21.91684 | 114.14757 | 8293 ft | 280 kts | 298° |
| 2026-05-05 09:40 | 21.92624 | 114.12926 | 8102 ft | 279 kts | 298° |
| 2026-05-05 09:40 | 21.93561 | 114.11106 | 7898 ft | 277 kts | 298° |
| 2026-05-05 09:40 | 21.94496 | 114.09292 | 7709 ft | 277 kts | 298° |
| 2026-05-05 09:41 | 21.95432 | 114.07476 | 7508 ft | 277 kts | 298° |
| 2026-05-05 09:41 | 21.96369 | 114.05660 | 7302 ft | 277 kts | 298° |
| 2026-05-05 09:41 | 21.97304 | 114.03848 | 7116 ft | 277 kts | 298° |
| 2026-05-05 09:41 | 21.98240 | 114.02036 | 6912 ft | 276 kts | 298° |
| 2026-05-05 09:42 | 21.99171 | 114.00229 | 6717 ft | 275 kts | 298° |
| 2026-05-05 09:42 | 22.00100 | 113.98429 | 6525 ft | 275 kts | 298° |
| 2026-05-05 09:42 | 22.01029 | 113.96628 | 6310 ft | 274 kts | 298° |
| 2026-05-05 09:42 | 22.01955 | 113.94833 | 6117 ft | 273 kts | 298° |
| 2026-05-05 09:43 | 22.02876 | 113.93045 | 5922 ft | 272 kts | 298° |
| 2026-05-05 09:43 | 22.03795 | 113.91262 | 5727 ft | 272 kts | 298° |
| 2026-05-05 09:43 | 22.04712 | 113.89481 | 5531 ft | 272 kts | 298° |
| 2026-05-05 09:43 | 22.05628 | 113.87701 | 5340 ft | 271 kts | 297° |
| 2026-05-05 09:44 | 22.06542 | 113.85926 | 5148 ft | 271 kts | 298° |
| 2026-05-05 09:44 | 22.07458 | 113.84149 | 4956 ft | 269 kts | 297° |
| 2026-05-05 09:44 | 22.08331 | 113.82451 | 4845 ft | 256 kts | 298° |
| 2026-05-05 09:44 | 22.09172 | 113.80805 | 4689 ft | 245 kts | 298° |
| 2026-05-05 09:45 | 22.09977 | 113.79235 | 4509 ft | 235 kts | 299° |
| 2026-05-05 09:45 | 22.10897 | 113.77830 | 4379 ft | 227 kts | 314° |
| 2026-05-05 09:45 | 22.12181 | 113.76903 | 4271 ft | 219 kts | 333° |
| 2026-05-05 09:45 | 22.13538 | 113.76216 | 4135 ft | 212 kts | 335° |
| 2026-05-05 09:46 | 22.14865 | 113.75567 | 3921 ft | 208 kts | 335° |
| 2026-05-05 09:46 | 22.16171 | 113.74924 | 3689 ft | 205 kts | 335° |
| 2026-05-05 09:46 | 22.17450 | 113.74290 | 3508 ft | 201 kts | 335° |
| 2026-05-05 09:46 | 22.18716 | 113.73661 | 3360 ft | 200 kts | 336° |
| 2026-05-05 09:47 | 22.19989 | 113.73032 | 3208 ft | 202 kts | 336° |
| 2026-05-05 09:47 | 22.21342 | 113.72681 | 3064 ft | 200 kts | 6° |
| 2026-05-05 09:47 | 22.22616 | 113.73171 | 2903 ft | 194 kts | 36° |
| 2026-05-05 09:47 | 22.23747 | 113.73962 | 2777 ft | 194 kts | 39° |
| 2026-05-05 09:48 | 22.24853 | 113.74771 | 2654 ft | 190 kts | 38° |
| 2026-05-05 09:48 | 22.25938 | 113.75574 | 2482 ft | 188 kts | 41° |
| 2026-05-05 09:48 | 22.26767 | 113.76621 | 2382 ft | 179 kts | 68° |
| 2026-05-05 09:48 | 22.27211 | 113.77809 | 2293 ft | 163 kts | 75° |
| 2026-05-05 09:49 | 22.27564 | 113.78933 | 2221 ft | 153 kts | 76° |
| 2026-05-05 09:49 | 22.27889 | 113.79963 | 2087 ft | 138 kts | 75° |
| 2026-05-05 09:49 | 22.28201 | 113.80921 | 1716 ft | 134 kts | 73° |
| 2026-05-05 09:49 | 22.28549 | 113.81823 | 1540 ft | 125 kts | 75° |
| 2026-05-05 09:50 | 22.28817 | 113.82702 | 1404 ft | 123 kts | 76° |
| 2026-05-05 09:50 | 22.29095 | 113.83579 | 1244 ft | 123 kts | 76° |
| 2026-05-05 09:50 | 22.29378 | 113.84453 | 1073 ft | 123 kts | 74° |
| 2026-05-05 09:50 | 22.29665 | 113.85329 | 922 ft | 124 kts | 73° |
| 2026-05-05 09:51 | 22.29949 | 113.86206 | 762 ft | 125 kts | 71° |
| 2026-05-05 09:51 | 22.30233 | 113.87090 | 613 ft | 125 kts | 70° |
| 2026-05-05 09:51 | 22.30518 | 113.87979 | 423 ft | 125 kts | 69° |
| 2026-05-05 09:51 | 22.30801 | 113.88863 | 263 ft | 125 kts | 70° |
| 2026-05-05 09:52 | 22.31075 | 113.89751 | 97 ft | 125 kts | 69° |
| 2026-05-05 09:52 | 22.31353 | 113.90597 | 35 ft | 104 kts | 70° |
| 2026-05-05 09:52 | 22.31556 | 113.91214 | 38 ft | 74 kts | 70° |
| 2026-05-05 09:52 | 22.31698 | 113.91660 | 37 ft | 53 kts | 70° |
| 2026-05-05 09:53 | 22.31788 | 113.91984 | 36 ft | 39 kts | 83° |
| 2026-05-05 09:53 | 22.31778 | 113.92196 | 37 ft | 20 kts | 101° |
| 2026-05-05 09:53 | 22.31752 | 113.92354 | 37 ft | 21 kts | 101° |
| 2026-05-05 09:53 | 22.31663 | 113.92444 | 37 ft | 18 kts | 157° |
| 2026-05-05 09:54 | 22.31594 | 113.92507 | 37 ft | 7 kts | 161° |
| 2026-05-05 09:54 | 22.31533 | 113.92489 | 37 ft | 11 kts | 205° |
| 2026-05-05 09:54 | 22.31505 | 113.92471 | 37 ft | 0 kts | 210° |